sensor_id;sensor_type;location;lat;lon;timestamp;P1;durP1;ratioP1;P2;durP2;ratioP2
74945;SDS011;63509;45.250;38.102;2024-01-15T00:02:14;2.70;;;0.70;;
74945;SDS011;63509;45.250;38.102;2024-01-15T00:04:40;1.15;;;0.50;;
74945;SDS011;63509;45.250;38.102;2024-01-15T00:07:07;0.60;;;0.30;;
74945;SDS011;63509;45.250;38.102;2024-01-15T00:09:34;1.23;;;0.73;;
74945;SDS011;63509;45.250;38.102;2024-01-15T00:12:00;0.65;;;0.32;;
74945;SDS011;63509;45.250;38.102;2024-01-15T00:14:27;1.10;;;0.55;;
74945;SDS011;63509;45.250;38.102;2024-01-15T00:16:54;2.65;;;0.52;;
74945;SDS011;63509;45.250;38.102;2024-01-15T00:19:21;0.93;;;0.35;;
74945;SDS011;63509;45.250;38.102;2024-01-15T00:21:47;1.45;;;0.68;;
74945;SDS011;63509;45.250;38.102;2024-01-15T00:24:13;0.95;;;0.68;;
74945;SDS011;63509;45.250;38.102;2024-01-15T00:26:40;1.98;;;0.68;;
74945;SDS011;63509;45.250;38.102;2024-01-15T00:29:06;1.90;;;0.82;;
74945;SDS011;63509;45.250;38.102;2024-01-15T00:31:33;2.47;;;0.77;;
74945;SDS011;63509;45.250;38.102;2024-01-15T00:34:00;1.52;;;0.80;;
74945;SDS011;63509;45.250;38.102;2024-01-15T00:36:26;0.35;;;0.25;;
74945;SDS011;63509;45.250;38.102;2024-01-15T00:38:53;2.88;;;0.95;;
74945;SDS011;63509;45.250;38.102;2024-01-15T00:41:19;1.23;;;0.45;;
74945;SDS011;63509;45.250;38.102;2024-01-15T00:43:45;2.17;;;0.95;;
74945;SDS011;63509;45.250;38.102;2024-01-15T00:48:40;1.23;;;0.40;;
74945;SDS011;63509;45.250;38.102;2024-01-15T00:51:06;1.27;;;0.63;;
74945;SDS011;63509;45.250;38.102;2024-01-15T00:53:33;2.63;;;0.40;;
74945;SDS011;63509;45.250;38.102;2024-01-15T00:55:59;1.02;;;0.45;;
74945;SDS011;63509;45.250;38.102;2024-01-15T00:58:26;1.38;;;0.70;;
74945;SDS011;63509;45.250;38.102;2024-01-15T01:00:52;1.58;;;0.60;;
74945;SDS011;63509;45.250;38.102;2024-01-15T01:03:18;2.42;;;0.70;;
74945;SDS011;63509;45.250;38.102;2024-01-15T01:05:45;1.23;;;0.65;;
74945;SDS011;63509;45.250;38.102;2024-01-15T01:08:11;2.03;;;0.70;;
74945;SDS011;63509;45.250;38.102;2024-01-15T01:10:37;1.35;;;0.50;;
74945;SDS011;63509;45.250;38.102;2024-01-15T01:13:03;1.63;;;0.73;;
74945;SDS011;63509;45.250;38.102;2024-01-15T01:15:29;3.83;;;0.73;;
74945;SDS011;63509;45.250;38.102;2024-01-15T01:17:55;2.13;;;1.08;;
74945;SDS011;63509;45.250;38.102;2024-01-15T01:20:21;2.10;;;1.05;;
74945;SDS011;63509;45.250;38.102;2024-01-15T01:22:47;4.05;;;1.15;;
74945;SDS011;63509;45.250;38.102;2024-01-15T01:25:13;2.20;;;1.35;;
74945;SDS011;63509;45.250;38.102;2024-01-15T01:27:39;2.42;;;1.45;;
74945;SDS011;63509;45.250;38.102;2024-01-15T01:30:06;4.10;;;1.13;;
74945;SDS011;63509;45.250;38.102;2024-01-15T01:32:32;4.88;;;2.22;;
74945;SDS011;63509;45.250;38.102;2024-01-15T01:34:58;4.22;;;1.50;;
74945;SDS011;63509;45.250;38.102;2024-01-15T01:37:25;3.63;;;1.40;;
74945;SDS011;63509;45.250;38.102;2024-01-15T01:39:51;3.60;;;1.65;;
74945;SDS011;63509;45.250;38.102;2024-01-15T01:42:17;3.78;;;1.60;;
74945;SDS011;63509;45.250;38.102;2024-01-15T01:44:43;3.28;;;1.40;;
74945;SDS011;63509;45.250;38.102;2024-01-15T01:47:09;2.80;;;1.40;;
74945;SDS011;63509;45.250;38.102;2024-01-15T01:49:36;6.85;;;1.65;;
74945;SDS011;63509;45.250;38.102;2024-01-15T01:52:04;7.38;;;1.33;;
74945;SDS011;63509;45.250;38.102;2024-01-15T01:54:32;5.50;;;1.95;;
74945;SDS011;63509;45.250;38.102;2024-01-15T01:56:59;4.85;;;1.75;;
74945;SDS011;63509;45.250;38.102;2024-01-15T01:59:27;5.63;;;1.25;;
74945;SDS011;63509;45.250;38.102;2024-01-15T02:01:55;12.82;;;1.15;;
74945;SDS011;63509;45.250;38.102;2024-01-15T02:04:23;2.33;;;1.02;;
74945;SDS011;63509;45.250;38.102;2024-01-15T02:06:50;3.50;;;1.20;;
74945;SDS011;63509;45.250;38.102;2024-01-15T02:09:17;3.47;;;1.20;;
74945;SDS011;63509;45.250;38.102;2024-01-15T02:11:46;1.63;;;1.00;;
74945;SDS011;63509;45.250;38.102;2024-01-15T02:14:12;3.45;;;1.42;;
74945;SDS011;63509;45.250;38.102;2024-01-15T02:16:38;2.97;;;1.10;;
74945;SDS011;63509;45.250;38.102;2024-01-15T02:19:04;2.65;;;1.17;;
74945;SDS011;63509;45.250;38.102;2024-01-15T02:21:31;5.65;;;1.52;;
74945;SDS011;63509;45.250;38.102;2024-01-15T02:23:58;7.38;;;2.25;;
74945;SDS011;63509;45.250;38.102;2024-01-15T02:26:24;4.20;;;1.98;;
74945;SDS011;63509;45.250;38.102;2024-01-15T02:28:51;3.28;;;1.30;;
74945;SDS011;63509;45.250;38.102;2024-01-15T02:31:18;2.05;;;0.95;;
74945;SDS011;63509;45.250;38.102;2024-01-15T02:33:44;2.63;;;1.08;;
74945;SDS011;63509;45.250;38.102;2024-01-15T02:36:11;2.53;;;1.15;;
74945;SDS011;63509;45.250;38.102;2024-01-15T02:38:38;2.20;;;1.05;;
74945;SDS011;63509;45.250;38.102;2024-01-15T02:41:04;2.70;;;1.17;;
74945;SDS011;63509;45.250;38.102;2024-01-15T02:43:30;4.18;;;1.52;;
74945;SDS011;63509;45.250;38.102;2024-01-15T02:45:56;3.55;;;1.50;;
74945;SDS011;63509;45.250;38.102;2024-01-15T02:48:22;3.55;;;1.60;;
74945;SDS011;63509;45.250;38.102;2024-01-15T02:50:48;1.90;;;0.90;;
74945;SDS011;63509;45.250;38.102;2024-01-15T02:53:14;1.85;;;1.08;;
74945;SDS011;63509;45.250;38.102;2024-01-15T02:55:40;1.95;;;0.65;;
74945;SDS011;63509;45.250;38.102;2024-01-15T02:58:07;6.70;;;1.42;;
74945;SDS011;63509;45.250;38.102;2024-01-15T03:00:33;2.40;;;0.93;;
74945;SDS011;63509;45.250;38.102;2024-01-15T03:02:59;10.40;;;2.00;;
74945;SDS011;63509;45.250;38.102;2024-01-15T03:05:25;1.92;;;0.98;;
74945;SDS011;63509;45.250;38.102;2024-01-15T03:07:51;9.00;;;1.35;;
74945;SDS011;63509;45.250;38.102;2024-01-15T03:10:17;6.55;;;1.52;;
74945;SDS011;63509;45.250;38.102;2024-01-15T03:12:43;3.95;;;1.50;;
74945;SDS011;63509;45.250;38.102;2024-01-15T03:15:09;1.73;;;0.80;;
74945;SDS011;63509;45.250;38.102;2024-01-15T03:17:36;5.90;;;2.25;;
74945;SDS011;63509;45.250;38.102;2024-01-15T03:20:02;2.88;;;1.65;;
74945;SDS011;63509;45.250;38.102;2024-01-15T03:22:28;2.47;;;1.05;;
74945;SDS011;63509;45.250;38.102;2024-01-15T03:24:54;3.97;;;1.23;;
74945;SDS011;63509;45.250;38.102;2024-01-15T03:27:20;3.75;;;1.17;;
74945;SDS011;63509;45.250;38.102;2024-01-15T03:29:46;6.68;;;1.63;;
74945;SDS011;63509;45.250;38.102;2024-01-15T03:32:12;3.53;;;1.08;;
74945;SDS011;63509;45.250;38.102;2024-01-15T03:34:38;2.63;;;1.20;;
74945;SDS011;63509;45.250;38.102;2024-01-15T03:37:04;3.20;;;1.50;;
74945;SDS011;63509;45.250;38.102;2024-01-15T03:39:31;1.95;;;1.27;;
74945;SDS011;63509;45.250;38.102;2024-01-15T03:41:57;3.60;;;1.13;;
74945;SDS011;63509;45.250;38.102;2024-01-15T03:44:23;3.20;;;1.20;;
74945;SDS011;63509;45.250;38.102;2024-01-15T03:46:49;3.70;;;1.27;;
74945;SDS011;63509;45.250;38.102;2024-01-15T03:49:16;5.00;;;2.22;;
74945;SDS011;63509;45.250;38.102;2024-01-15T03:51:42;3.67;;;1.73;;
74945;SDS011;63509;45.250;38.102;2024-01-15T03:54:08;3.22;;;1.65;;
74945;SDS011;63509;45.250;38.102;2024-01-15T03:56:34;4.25;;;1.75;;
74945;SDS011;63509;45.250;38.102;2024-01-15T03:59:00;2.78;;;1.55;;
74945;SDS011;63509;45.250;38.102;2024-01-15T04:01:26;2.97;;;1.42;;
74945;SDS011;63509;45.250;38.102;2024-01-15T04:03:53;2.03;;;1.00;;
74945;SDS011;63509;45.250;38.102;2024-01-15T04:06:19;3.47;;;1.77;;
74945;SDS011;63509;45.250;38.102;2024-01-15T04:08:45;2.15;;;1.23;;
74945;SDS011;63509;45.250;38.102;2024-01-15T04:11:11;1.33;;;1.00;;
74945;SDS011;63509;45.250;38.102;2024-01-15T04:13:37;9.02;;;2.08;;
74945;SDS011;63509;45.250;38.102;2024-01-15T04:16:03;2.92;;;1.40;;
74945;SDS011;63509;45.250;38.102;2024-01-15T04:18:30;3.92;;;1.73;;
74945;SDS011;63509;45.250;38.102;2024-01-15T04:20:56;2.85;;;1.60;;
74945;SDS011;63509;45.250;38.102;2024-01-15T04:23:22;3.53;;;1.13;;
74945;SDS011;63509;45.250;38.102;2024-01-15T04:25:48;3.85;;;1.65;;
74945;SDS011;63509;45.250;38.102;2024-01-15T04:28:14;3.30;;;2.13;;
74945;SDS011;63509;45.250;38.102;2024-01-15T04:30:40;3.97;;;1.75;;
74945;SDS011;63509;45.250;38.102;2024-01-15T04:33:06;5.60;;;2.20;;
74945;SDS011;63509;45.250;38.102;2024-01-15T04:35:32;3.28;;;1.27;;
74945;SDS011;63509;45.250;38.102;2024-01-15T04:38:00;6.82;;;2.00;;
74945;SDS011;63509;45.250;38.102;2024-01-15T04:40:26;3.65;;;1.55;;
74945;SDS011;63509;45.250;38.102;2024-01-15T04:42:53;3.78;;;1.95;;
74945;SDS011;63509;45.250;38.102;2024-01-15T04:45:20;7.05;;;1.77;;
74945;SDS011;63509;45.250;38.102;2024-01-15T04:47:48;3.67;;;1.60;;
74945;SDS011;63509;45.250;38.102;2024-01-15T04:50:15;3.05;;;1.58;;
74945;SDS011;63509;45.250;38.102;2024-01-15T04:52:41;8.50;;;1.70;;
74945;SDS011;63509;45.250;38.102;2024-01-15T04:55:07;2.95;;;1.70;;
74945;SDS011;63509;45.250;38.102;2024-01-15T04:57:33;4.05;;;1.80;;
74945;SDS011;63509;45.250;38.102;2024-01-15T04:59:59;2.65;;;1.35;;
74945;SDS011;63509;45.250;38.102;2024-01-15T05:02:25;10.00;;;1.80;;
74945;SDS011;63509;45.250;38.102;2024-01-15T05:04:52;2.80;;;1.00;;
74945;SDS011;63509;45.250;38.102;2024-01-15T05:07:18;4.00;;;1.40;;
74945;SDS011;63509;45.250;38.102;2024-01-15T05:09:44;2.67;;;0.85;;
74945;SDS011;63509;45.250;38.102;2024-01-15T05:12:10;6.25;;;1.50;;
74945;SDS011;63509;45.250;38.102;2024-01-15T05:14:37;5.32;;;1.55;;
74945;SDS011;63509;45.250;38.102;2024-01-15T05:17:03;6.47;;;2.10;;
74945;SDS011;63509;45.250;38.102;2024-01-15T05:19:29;2.92;;;1.48;;
74945;SDS011;63509;45.250;38.102;2024-01-15T05:21:55;5.35;;;1.27;;
74945;SDS011;63509;45.250;38.102;2024-01-15T05:24:21;2.50;;;1.40;;
74945;SDS011;63509;45.250;38.102;2024-01-15T05:26:47;4.25;;;1.30;;
74945;SDS011;63509;45.250;38.102;2024-01-15T05:29:14;3.53;;;1.25;;
74945;SDS011;63509;45.250;38.102;2024-01-15T05:31:40;3.60;;;1.98;;
74945;SDS011;63509;45.250;38.102;2024-01-15T05:34:06;5.38;;;2.55;;
74945;SDS011;63509;45.250;38.102;2024-01-15T05:36:32;3.72;;;1.70;;
74945;SDS011;63509;45.250;38.102;2024-01-15T05:38:58;3.10;;;1.80;;
74945;SDS011;63509;45.250;38.102;2024-01-15T05:41:24;5.63;;;3.42;;
74945;SDS011;63509;45.250;38.102;2024-01-15T05:43:50;5.07;;;2.13;;
74945;SDS011;63509;45.250;38.102;2024-01-15T05:46:16;3.78;;;2.30;;
74945;SDS011;63509;45.250;38.102;2024-01-15T05:48:42;4.95;;;2.13;;
74945;SDS011;63509;45.250;38.102;2024-01-15T05:51:09;5.03;;;2.33;;
74945;SDS011;63509;45.250;38.102;2024-01-15T05:53:36;3.67;;;2.15;;
74945;SDS011;63509;45.250;38.102;2024-01-15T05:56:05;7.93;;;2.17;;
74945;SDS011;63509;45.250;38.102;2024-01-15T05:58:31;6.63;;;3.08;;
74945;SDS011;63509;45.250;38.102;2024-01-15T06:00:57;6.25;;;3.88;;
74945;SDS011;63509;45.250;38.102;2024-01-15T06:03:24;12.85;;;4.80;;
74945;SDS011;63509;45.250;38.102;2024-01-15T06:05:50;5.97;;;3.28;;
74945;SDS011;63509;45.250;38.102;2024-01-15T06:08:16;11.32;;;2.75;;
74945;SDS011;63509;45.250;38.102;2024-01-15T06:10:42;4.22;;;2.33;;
74945;SDS011;63509;45.250;38.102;2024-01-15T06:13:08;5.20;;;2.70;;
74945;SDS011;63509;45.250;38.102;2024-01-15T06:15:34;4.03;;;2.10;;
74945;SDS011;63509;45.250;38.102;2024-01-15T06:18:01;6.93;;;2.30;;
74945;SDS011;63509;45.250;38.102;2024-01-15T06:20:27;5.57;;;2.60;;
74945;SDS011;63509;45.250;38.102;2024-01-15T06:22:53;13.63;;;3.58;;
74945;SDS011;63509;45.250;38.102;2024-01-15T06:25:19;7.85;;;2.05;;
74945;SDS011;63509;45.250;38.102;2024-01-15T06:27:45;11.65;;;2.25;;
74945;SDS011;63509;45.250;38.102;2024-01-15T06:30:11;8.02;;;3.35;;
74945;SDS011;63509;45.250;38.102;2024-01-15T06:32:38;3.47;;;1.88;;
74945;SDS011;63509;45.250;38.102;2024-01-15T06:35:05;5.18;;;2.13;;
74945;SDS011;63509;45.250;38.102;2024-01-15T06:37:31;9.02;;;2.15;;
74945;SDS011;63509;45.250;38.102;2024-01-15T06:39:58;7.35;;;2.53;;
74945;SDS011;63509;45.250;38.102;2024-01-15T06:42:24;3.42;;;1.77;;
74945;SDS011;63509;45.250;38.102;2024-01-15T06:44:50;12.75;;;3.20;;
74945;SDS011;63509;45.250;38.102;2024-01-15T06:47:17;9.20;;;4.22;;
74945;SDS011;63509;45.250;38.102;2024-01-15T06:49:43;8.77;;;5.05;;
74945;SDS011;63509;45.250;38.102;2024-01-15T06:52:09;9.60;;;5.78;;
74945;SDS011;63509;45.250;38.102;2024-01-15T06:54:36;9.82;;;5.72;;
74945;SDS011;63509;45.250;38.102;2024-01-15T06:57:03;13.27;;;6.13;;
74945;SDS011;63509;45.250;38.102;2024-01-15T06:59:29;17.02;;;5.38;;
74945;SDS011;63509;45.250;38.102;2024-01-15T07:01:55;12.30;;;5.45;;
74945;SDS011;63509;45.250;38.102;2024-01-15T07:04:21;7.07;;;3.70;;
74945;SDS011;63509;45.250;38.102;2024-01-15T07:06:47;10.90;;;3.38;;
74945;SDS011;63509;45.250;38.102;2024-01-15T07:09:14;12.57;;;5.55;;
74945;SDS011;63509;45.250;38.102;2024-01-15T07:11:43;9.35;;;4.80;;
74945;SDS011;63509;45.250;38.102;2024-01-15T07:14:11;9.98;;;5.05;;
74945;SDS011;63509;45.250;38.102;2024-01-15T07:16:37;13.80;;;5.10;;
74945;SDS011;63509;45.250;38.102;2024-01-15T07:19:03;14.80;;;5.82;;
74945;SDS011;63509;45.250;38.102;2024-01-15T07:21:30;8.80;;;3.85;;
74945;SDS011;63509;45.250;38.102;2024-01-15T07:23:56;9.20;;;3.88;;
74945;SDS011;63509;45.250;38.102;2024-01-15T07:26:22;5.72;;;3.38;;
74945;SDS011;63509;45.250;38.102;2024-01-15T07:28:48;3.13;;;1.67;;
74945;SDS011;63509;45.250;38.102;2024-01-15T07:31:17;4.95;;;1.90;;
74945;SDS011;63509;45.250;38.102;2024-01-15T07:33:43;4.93;;;2.03;;
74945;SDS011;63509;45.250;38.102;2024-01-15T07:36:10;3.85;;;1.58;;
74945;SDS011;63509;45.250;38.102;2024-01-15T07:38:36;3.65;;;1.73;;
74945;SDS011;63509;45.250;38.102;2024-01-15T07:41:03;12.43;;;3.00;;
74945;SDS011;63509;45.250;38.102;2024-01-15T07:43:29;6.90;;;2.97;;
74945;SDS011;63509;45.250;38.102;2024-01-15T07:45:55;6.22;;;1.77;;
74945;SDS011;63509;45.250;38.102;2024-01-15T07:48:21;8.63;;;2.53;;
74945;SDS011;63509;45.250;38.102;2024-01-15T07:50:47;3.55;;;1.77;;
74945;SDS011;63509;45.250;38.102;2024-01-15T07:53:13;5.65;;;2.67;;
74945;SDS011;63509;45.250;38.102;2024-01-15T07:55:39;4.88;;;2.60;;
74945;SDS011;63509;45.250;38.102;2024-01-15T07:58:06;5.50;;;2.13;;
74945;SDS011;63509;45.250;38.102;2024-01-15T08:00:32;8.57;;;3.38;;
74945;SDS011;63509;45.250;38.102;2024-01-15T08:02:58;4.07;;;1.70;;
74945;SDS011;63509;45.250;38.102;2024-01-15T08:05:24;5.13;;;2.40;;
74945;SDS011;63509;45.250;38.102;2024-01-15T08:07:51;4.15;;;1.70;;
74945;SDS011;63509;45.250;38.102;2024-01-15T08:10:17;5.75;;;1.85;;
74945;SDS011;63509;45.250;38.102;2024-01-15T08:12:43;8.65;;;2.30;;
74945;SDS011;63509;45.250;38.102;2024-01-15T08:15:09;6.63;;;2.63;;
74945;SDS011;63509;45.250;38.102;2024-01-15T08:17:35;3.85;;;1.35;;
74945;SDS011;63509;45.250;38.102;2024-01-15T08:20:01;5.15;;;2.00;;
74945;SDS011;63509;45.250;38.102;2024-01-15T08:22:28;12.95;;;2.42;;
74945;SDS011;63509;45.250;38.102;2024-01-15T08:24:54;6.13;;;1.88;;
74945;SDS011;63509;45.250;38.102;2024-01-15T08:27:20;8.77;;;1.63;;
74945;SDS011;63509;45.250;38.102;2024-01-15T08:29:46;3.65;;;2.25;;
74945;SDS011;63509;45.250;38.102;2024-01-15T08:32:13;8.80;;;2.00;;
74945;SDS011;63509;45.250;38.102;2024-01-15T08:34:41;7.55;;;2.28;;
74945;SDS011;63509;45.250;38.102;2024-01-15T08:37:08;6.82;;;2.72;;
74945;SDS011;63509;45.250;38.102;2024-01-15T08:39:34;4.00;;;2.55;;
74945;SDS011;63509;45.250;38.102;2024-01-15T08:42:04;3.45;;;1.90;;
74945;SDS011;63509;45.250;38.102;2024-01-15T08:44:30;8.45;;;2.10;;
74945;SDS011;63509;45.250;38.102;2024-01-15T08:46:57;12.77;;;3.08;;
74945;SDS011;63509;45.250;38.102;2024-01-15T08:49:23;6.35;;;2.45;;
74945;SDS011;63509;45.250;38.102;2024-01-15T08:51:49;7.75;;;3.45;;
74945;SDS011;63509;45.250;38.102;2024-01-15T08:54:15;10.38;;;4.90;;
74945;SDS011;63509;45.250;38.102;2024-01-15T08:56:41;8.68;;;4.50;;
74945;SDS011;63509;45.250;38.102;2024-01-15T08:59:07;13.65;;;5.22;;
74945;SDS011;63509;45.250;38.102;2024-01-15T09:01:33;10.88;;;4.75;;
74945;SDS011;63509;45.250;38.102;2024-01-15T09:03:59;13.80;;;5.47;;
74945;SDS011;63509;45.250;38.102;2024-01-15T09:06:25;14.32;;;5.25;;
74945;SDS011;63509;45.250;38.102;2024-01-15T09:08:51;8.40;;;3.95;;
74945;SDS011;63509;45.250;38.102;2024-01-15T09:14:02;6.30;;;3.72;;
74945;SDS011;63509;45.250;38.102;2024-01-15T09:16:29;5.32;;;2.75;;
74945;SDS011;63509;45.250;38.102;2024-01-15T09:18:55;7.47;;;3.05;;
74945;SDS011;63509;45.250;38.102;2024-01-15T09:21:23;7.00;;;3.75;;
74945;SDS011;63509;45.250;38.102;2024-01-15T09:23:50;7.57;;;3.25;;
74945;SDS011;63509;45.250;38.102;2024-01-15T09:26:16;4.72;;;2.22;;
74945;SDS011;63509;45.250;38.102;2024-01-15T09:28:43;10.52;;;3.20;;
74945;SDS011;63509;45.250;38.102;2024-01-15T09:31:08;7.82;;;3.30;;
74945;SDS011;63509;45.250;38.102;2024-01-15T09:33:35;5.43;;;2.92;;
74945;SDS011;63509;45.250;38.102;2024-01-15T09:36:04;8.77;;;3.22;;
74945;SDS011;63509;45.250;38.102;2024-01-15T09:38:30;10.95;;;3.42;;
74945;SDS011;63509;45.250;38.102;2024-01-15T09:40:57;10.45;;;4.30;;
74945;SDS011;63509;45.250;38.102;2024-01-15T09:43:24;12.05;;;4.30;;
74945;SDS011;63509;45.250;38.102;2024-01-15T09:45:50;12.77;;;4.38;;
74945;SDS011;63509;45.250;38.102;2024-01-15T09:48:17;7.75;;;3.78;;
74945;SDS011;63509;45.250;38.102;2024-01-15T09:50:43;10.93;;;3.63;;
74945;SDS011;63509;45.250;38.102;2024-01-15T09:53:09;10.25;;;3.63;;
74945;SDS011;63509;45.250;38.102;2024-01-15T09:55:37;6.00;;;3.40;;
74945;SDS011;63509;45.250;38.102;2024-01-15T09:58:03;10.32;;;3.30;;
74945;SDS011;63509;45.250;38.102;2024-01-15T10:00:30;8.32;;;3.67;;
74945;SDS011;63509;45.250;38.102;2024-01-15T10:02:59;10.43;;;3.22;;
74945;SDS011;63509;45.250;38.102;2024-01-15T10:05:26;10.70;;;3.75;;
74945;SDS011;63509;45.250;38.102;2024-01-15T10:07:53;10.93;;;4.50;;
74945;SDS011;63509;45.250;38.102;2024-01-15T10:10:21;15.77;;;3.97;;
74945;SDS011;63509;45.250;38.102;2024-01-15T10:12:47;7.50;;;3.20;;
74945;SDS011;63509;45.250;38.102;2024-01-15T10:15:15;10.30;;;4.18;;
74945;SDS011;63509;45.250;38.102;2024-01-15T10:17:42;6.82;;;2.95;;
74945;SDS011;63509;45.250;38.102;2024-01-15T10:20:11;7.07;;;3.85;;
74945;SDS011;63509;45.250;38.102;2024-01-15T10:22:41;5.90;;;3.40;;
74945;SDS011;63509;45.250;38.102;2024-01-15T10:25:12;11.00;;;4.55;;
74945;SDS011;63509;45.250;38.102;2024-01-15T10:27:40;11.40;;;4.20;;
74945;SDS011;63509;45.250;38.102;2024-01-15T10:30:07;8.07;;;3.60;;
74945;SDS011;63509;45.250;38.102;2024-01-15T10:32:34;14.10;;;4.35;;
74945;SDS011;63509;45.250;38.102;2024-01-15T10:35:00;9.43;;;4.05;;
74945;SDS011;63509;45.250;38.102;2024-01-15T10:37:26;6.57;;;3.70;;
74945;SDS011;63509;45.250;38.102;2024-01-15T10:39:53;12.05;;;3.10;;
74945;SDS011;63509;45.250;38.102;2024-01-15T10:42:19;9.57;;;4.05;;
74945;SDS011;63509;45.250;38.102;2024-01-15T10:44:45;7.95;;;3.25;;
74945;SDS011;63509;45.250;38.102;2024-01-15T10:47:14;5.72;;;3.53;;
74945;SDS011;63509;45.250;38.102;2024-01-15T10:49:40;21.63;;;4.75;;
74945;SDS011;63509;45.250;38.102;2024-01-15T10:52:06;9.80;;;2.60;;
74945;SDS011;63509;45.250;38.102;2024-01-15T10:54:33;12.07;;;2.80;;
74945;SDS011;63509;45.250;38.102;2024-01-15T10:57:00;9.13;;;3.42;;
74945;SDS011;63509;45.250;38.102;2024-01-15T10:59:28;7.15;;;3.60;;
74945;SDS011;63509;45.250;38.102;2024-01-15T11:01:54;16.67;;;3.72;;
74945;SDS011;63509;45.250;38.102;2024-01-15T11:04:21;8.38;;;3.17;;
74945;SDS011;63509;45.250;38.102;2024-01-15T11:06:53;6.63;;;2.78;;
74945;SDS011;63509;45.250;38.102;2024-01-15T11:09:21;6.95;;;3.72;;
74945;SDS011;63509;45.250;38.102;2024-01-15T11:11:50;10.80;;;3.00;;
74945;SDS011;63509;45.250;38.102;2024-01-15T11:14:35;9.68;;;4.05;;
74945;SDS011;63509;45.250;38.102;2024-01-15T11:17:11;8.85;;;3.47;;
74945;SDS011;63509;45.250;38.102;2024-01-15T11:22:09;4.90;;;2.45;;
74945;SDS011;63509;45.250;38.102;2024-01-15T11:24:40;9.80;;;3.63;;
74945;SDS011;63509;45.250;38.102;2024-01-15T11:27:07;12.63;;;2.90;;
74945;SDS011;63509;45.250;38.102;2024-01-15T11:29:34;5.65;;;3.13;;
74945;SDS011;63509;45.250;38.102;2024-01-15T11:32:02;8.85;;;3.08;;
74945;SDS011;63509;45.250;38.102;2024-01-15T11:37:29;5.70;;;2.72;;
74945;SDS011;63509;45.250;38.102;2024-01-15T11:40:17;6.57;;;2.65;;
74945;SDS011;63509;45.250;38.102;2024-01-15T11:42:45;5.75;;;2.30;;
74945;SDS011;63509;45.250;38.102;2024-01-15T11:45:16;5.20;;;2.78;;
74945;SDS011;63509;45.250;38.102;2024-01-15T11:47:57;10.63;;;2.25;;
74945;SDS011;63509;45.250;38.102;2024-01-15T11:50:42;6.57;;;1.90;;
74945;SDS011;63509;45.250;38.102;2024-01-15T11:53:15;10.77;;;1.98;;
74945;SDS011;63509;45.250;38.102;2024-01-15T11:55:57;8.02;;;2.88;;
74945;SDS011;63509;45.250;38.102;2024-01-15T11:58:25;13.68;;;2.35;;
74945;SDS011;63509;45.250;38.102;2024-01-15T12:00:52;9.10;;;2.40;;
74945;SDS011;63509;45.250;38.102;2024-01-15T12:03:21;7.95;;;2.10;;
74945;SDS011;63509;45.250;38.102;2024-01-15T12:05:48;9.68;;;2.67;;
74945;SDS011;63509;45.250;38.102;2024-01-15T12:08:14;7.15;;;2.03;;
74945;SDS011;63509;45.250;38.102;2024-01-15T12:10:46;5.45;;;2.25;;
74945;SDS011;63509;45.250;38.102;2024-01-15T12:13:12;5.03;;;2.22;;
74945;SDS011;63509;45.250;38.102;2024-01-15T12:15:43;5.38;;;2.28;;
74945;SDS011;63509;45.250;38.102;2024-01-15T12:18:14;4.85;;;2.67;;
74945;SDS011;63509;45.250;38.102;2024-01-15T12:20:42;4.20;;;1.88;;
74945;SDS011;63509;45.250;38.102;2024-01-15T12:23:09;4.43;;;2.22;;
74945;SDS011;63509;45.250;38.102;2024-01-15T12:25:36;11.52;;;2.70;;
74945;SDS011;63509;45.250;38.102;2024-01-15T12:28:03;5.68;;;2.08;;
74945;SDS011;63509;45.250;38.102;2024-01-15T12:30:30;3.03;;;1.52;;
74945;SDS011;63509;45.250;38.102;2024-01-15T12:37:53;4.90;;;2.50;;
74945;SDS011;63509;45.250;38.102;2024-01-15T12:40:20;3.42;;;1.83;;
74945;SDS011;63509;45.250;38.102;2024-01-15T12:42:47;5.82;;;2.92;;
74945;SDS011;63509;45.250;38.102;2024-01-15T12:45:13;6.00;;;2.05;;
74945;SDS011;63509;45.250;38.102;2024-01-15T12:47:40;4.55;;;2.30;;
74945;SDS011;63509;45.250;38.102;2024-01-15T12:50:08;6.20;;;2.45;;
74945;SDS011;63509;45.250;38.102;2024-01-15T12:52:35;4.47;;;2.10;;
74945;SDS011;63509;45.250;38.102;2024-01-15T12:55:06;4.65;;;1.80;;
74945;SDS011;63509;45.250;38.102;2024-01-15T12:57:36;10.93;;;1.92;;
74945;SDS011;63509;45.250;38.102;2024-01-15T13:00:03;4.75;;;1.80;;
74945;SDS011;63509;45.250;38.102;2024-01-15T13:02:37;5.47;;;2.00;;
74945;SDS011;63509;45.250;38.102;2024-01-15T13:05:04;5.13;;;2.35;;
74945;SDS011;63509;45.250;38.102;2024-01-15T13:07:31;7.97;;;2.08;;
74945;SDS011;63509;45.250;38.102;2024-01-15T13:09:57;5.55;;;2.55;;
74945;SDS011;63509;45.250;38.102;2024-01-15T13:12:23;6.50;;;2.15;;
74945;SDS011;63509;45.250;38.102;2024-01-15T13:14:50;6.47;;;2.95;;
74945;SDS011;63509;45.250;38.102;2024-01-15T13:17:16;3.65;;;2.20;;
74945;SDS011;63509;45.250;38.102;2024-01-15T13:19:42;7.15;;;2.15;;
74945;SDS011;63509;45.250;38.102;2024-01-15T13:22:08;15.93;;;7.68;;
74945;SDS011;63509;45.250;38.102;2024-01-15T13:24:35;8.57;;;4.80;;
74945;SDS011;63509;45.250;38.102;2024-01-15T13:27:02;4.15;;;2.03;;
74945;SDS011;63509;45.250;38.102;2024-01-15T13:29:30;3.72;;;1.67;;
74945;SDS011;63509;45.250;38.102;2024-01-15T13:31:56;3.15;;;1.33;;
74945;SDS011;63509;45.250;38.102;2024-01-15T13:34:23;6.13;;;1.88;;
74945;SDS011;63509;45.250;38.102;2024-01-15T13:36:49;3.50;;;2.08;;
74945;SDS011;63509;45.250;38.102;2024-01-15T13:39:15;6.15;;;2.60;;
74945;SDS011;63509;45.250;38.102;2024-01-15T13:41:48;3.67;;;1.67;;
74945;SDS011;63509;45.250;38.102;2024-01-15T13:44:15;7.40;;;1.98;;
74945;SDS011;63509;45.250;38.102;2024-01-15T13:46:41;5.50;;;2.15;;
74945;SDS011;63509;45.250;38.102;2024-01-15T13:49:07;7.65;;;1.40;;
74945;SDS011;63509;45.250;38.102;2024-01-15T13:51:35;4.00;;;2.10;;
74945;SDS011;63509;45.250;38.102;2024-01-15T13:54:02;5.65;;;2.13;;
74945;SDS011;63509;45.250;38.102;2024-01-15T13:56:30;5.18;;;1.95;;
74945;SDS011;63509;45.250;38.102;2024-01-15T13:59:01;10.93;;;1.85;;
74945;SDS011;63509;45.250;38.102;2024-01-15T14:01:27;2.97;;;1.50;;
74945;SDS011;63509;45.250;38.102;2024-01-15T14:03:54;5.38;;;1.73;;
74945;SDS011;63509;45.250;38.102;2024-01-15T14:06:20;3.45;;;1.70;;
74945;SDS011;63509;45.250;38.102;2024-01-15T14:08:46;5.85;;;2.33;;
74945;SDS011;63509;45.250;38.102;2024-01-15T14:11:12;5.20;;;1.60;;
74945;SDS011;63509;45.250;38.102;2024-01-15T14:13:38;8.70;;;1.88;;
74945;SDS011;63509;45.250;38.102;2024-01-15T14:16:04;3.80;;;2.22;;
74945;SDS011;63509;45.250;38.102;2024-01-15T14:18:30;2.95;;;1.55;;
74945;SDS011;63509;45.250;38.102;2024-01-15T14:20:58;8.65;;;2.03;;
74945;SDS011;63509;45.250;38.102;2024-01-15T14:23:24;9.25;;;2.15;;
74945;SDS011;63509;45.250;38.102;2024-01-15T14:25:50;11.77;;;2.17;;
74945;SDS011;63509;45.250;38.102;2024-01-15T14:28:16;5.22;;;1.92;;
74945;SDS011;63509;45.250;38.102;2024-01-15T14:30:42;4.40;;;2.38;;
74945;SDS011;63509;45.250;38.102;2024-01-15T14:33:09;4.82;;;1.98;;
74945;SDS011;63509;45.250;38.102;2024-01-15T14:35:35;4.90;;;2.10;;
74945;SDS011;63509;45.250;38.102;2024-01-15T14:38:01;4.60;;;1.92;;
74945;SDS011;63509;45.250;38.102;2024-01-15T14:40:27;6.20;;;1.92;;
74945;SDS011;63509;45.250;38.102;2024-01-15T14:42:53;4.35;;;1.70;;
74945;SDS011;63509;45.250;38.102;2024-01-15T14:45:20;5.43;;;2.00;;
74945;SDS011;63509;45.250;38.102;2024-01-15T14:47:46;10.20;;;2.25;;